Terminal Aerodrome Forecast
Issued by NWS Charleston, WV

Current Version | Previous Version | Graphics & Text | Print | Product List | Glossary On
Versions: 1 2 3 4 5 6 7 8 9 10 11 12 13 14 15 16 17 18 19 20 21 22
000
FTUS41 KRLX 161100
TAFPKB
TAF
KPKB 161131Z 1612/1712 10004KT P6SM BKN060 OVC070
     FM161600 14010G15KT P6SM SHRA OVC040
     FM162300 16008KT P6SM SHRA OVC045
     FM170200 17008KT P6SM OVC035
     FM170800 18005KT P6SM BKN025
     FM171100 VRB03KT P6SM BKN020=

USA.gov is the U.S. government's official web portal to all federal, state and local government web resources and services.